sensor_id;sensor_type;location;lat;lon;timestamp;P1;durP1;ratioP1;P2;durP2;ratioP2
25123;SDS011;13104;51.030;4.686;2023-02-28T00:00:01;9.65;;;6.15;;
25123;SDS011;13104;51.030;4.686;2023-02-28T00:02:34;10.95;;;6.05;;
25123;SDS011;13104;51.030;4.686;2023-02-28T00:05:01;13.95;;;6.68;;
25123;SDS011;13104;51.030;4.686;2023-02-28T00:07:28;11.77;;;6.55;;
25123;SDS011;13104;51.030;4.686;2023-02-28T00:09:54;12.60;;;6.30;;
25123;SDS011;13104;51.030;4.686;2023-02-28T00:12:20;11.18;;;6.63;;
25123;SDS011;13104;51.030;4.686;2023-02-28T00:14:46;10.02;;;6.13;;
25123;SDS011;13104;51.030;4.686;2023-02-28T00:17:12;11.50;;;7.35;;
25123;SDS011;13104;51.030;4.686;2023-02-28T00:19:38;13.27;;;6.88;;
25123;SDS011;13104;51.030;4.686;2023-02-28T00:22:05;11.73;;;6.85;;
25123;SDS011;13104;51.030;4.686;2023-02-28T00:24:31;11.18;;;6.68;;
25123;SDS011;13104;51.030;4.686;2023-02-28T00:26:57;13.23;;;7.28;;
25123;SDS011;13104;51.030;4.686;2023-02-28T00:29:23;10.80;;;6.80;;
25123;SDS011;13104;51.030;4.686;2023-02-28T00:31:49;14.30;;;7.07;;
25123;SDS011;13104;51.030;4.686;2023-02-28T00:34:15;11.20;;;7.10;;
25123;SDS011;13104;51.030;4.686;2023-02-28T00:36:41;11.13;;;6.45;;
25123;SDS011;13104;51.030;4.686;2023-02-28T00:39:10;11.85;;;6.70;;
25123;SDS011;13104;51.030;4.686;2023-02-28T00:41:36;12.15;;;7.25;;
25123;SDS011;13104;51.030;4.686;2023-02-28T00:44:02;10.75;;;7.20;;
25123;SDS011;13104;51.030;4.686;2023-02-28T00:46:28;11.20;;;6.90;;
25123;SDS011;13104;51.030;4.686;2023-02-28T00:48:54;15.00;;;7.72;;
25123;SDS011;13104;51.030;4.686;2023-02-28T00:51:21;13.95;;;7.97;;
25123;SDS011;13104;51.030;4.686;2023-02-28T00:53:47;13.43;;;7.45;;
25123;SDS011;13104;51.030;4.686;2023-02-28T00:56:13;12.85;;;7.80;;
25123;SDS011;13104;51.030;4.686;2023-02-28T00:58:39;15.27;;;7.47;;
25123;SDS011;13104;51.030;4.686;2023-02-28T01:01:05;12.80;;;7.22;;
25123;SDS011;13104;51.030;4.686;2023-02-28T01:03:32;12.43;;;6.90;;
25123;SDS011;13104;51.030;4.686;2023-02-28T01:05:58;11.05;;;7.05;;
25123;SDS011;13104;51.030;4.686;2023-02-28T01:08:24;15.02;;;7.50;;
25123;SDS011;13104;51.030;4.686;2023-02-28T01:10:51;14.60;;;7.93;;
25123;SDS011;13104;51.030;4.686;2023-02-28T01:13:17;18.95;;;8.25;;
25123;SDS011;13104;51.030;4.686;2023-02-28T01:15:45;19.77;;;7.90;;
25123;SDS011;13104;51.030;4.686;2023-02-28T01:18:11;16.85;;;8.27;;
25123;SDS011;13104;51.030;4.686;2023-02-28T01:20:38;15.63;;;7.35;;
25123;SDS011;13104;51.030;4.686;2023-02-28T01:23:04;13.75;;;7.75;;
25123;SDS011;13104;51.030;4.686;2023-02-28T01:25:30;13.30;;;7.65;;
25123;SDS011;13104;51.030;4.686;2023-02-28T01:27:57;15.95;;;8.00;;
25123;SDS011;13104;51.030;4.686;2023-02-28T01:30:23;11.88;;;7.28;;
25123;SDS011;13104;51.030;4.686;2023-02-28T01:32:49;14.25;;;7.90;;
25123;SDS011;13104;51.030;4.686;2023-02-28T01:35:16;15.60;;;8.48;;
25123;SDS011;13104;51.030;4.686;2023-02-28T01:37:42;11.90;;;7.70;;
25123;SDS011;13104;51.030;4.686;2023-02-28T01:40:08;15.73;;;8.23;;
25123;SDS011;13104;51.030;4.686;2023-02-28T01:42:35;17.45;;;8.38;;
25123;SDS011;13104;51.030;4.686;2023-02-28T01:47:38;15.13;;;7.93;;
25123;SDS011;13104;51.030;4.686;2023-02-28T01:50:06;14.35;;;8.13;;
25123;SDS011;13104;51.030;4.686;2023-02-28T01:52:33;12.55;;;7.97;;
25123;SDS011;13104;51.030;4.686;2023-02-28T01:55:00;12.93;;;8.13;;
25123;SDS011;13104;51.030;4.686;2023-02-28T01:57:32;16.20;;;9.32;;
25123;SDS011;13104;51.030;4.686;2023-02-28T02:00:04;12.52;;;7.82;;
25123;SDS011;13104;51.030;4.686;2023-02-28T02:02:32;17.60;;;8.65;;
25123;SDS011;13104;51.030;4.686;2023-02-28T02:05:00;12.90;;;8.63;;
25123;SDS011;13104;51.030;4.686;2023-02-28T02:07:29;17.65;;;8.65;;
25123;SDS011;13104;51.030;4.686;2023-02-28T02:10:03;19.35;;;8.77;;
25123;SDS011;13104;51.030;4.686;2023-02-28T02:15:34;17.00;;;9.15;;
25123;SDS011;13104;51.030;4.686;2023-02-28T02:18:18;13.45;;;8.57;;
25123;SDS011;13104;51.030;4.686;2023-02-28T02:21:10;20.38;;;9.75;;
25123;SDS011;13104;51.030;4.686;2023-02-28T02:36:33;18.58;;;9.60;;
25123;SDS011;13104;51.030;4.686;2023-02-28T02:39:21;16.95;;;9.73;;
25123;SDS011;13104;51.030;4.686;2023-02-28T02:41:54;17.42;;;9.90;;
25123;SDS011;13104;51.030;4.686;2023-02-28T02:44:26;16.48;;;9.75;;
25123;SDS011;13104;51.030;4.686;2023-02-28T02:46:55;15.88;;;9.40;;
25123;SDS011;13104;51.030;4.686;2023-02-28T02:49:26;16.73;;;10.15;;
25123;SDS011;13104;51.030;4.686;2023-02-28T02:51:54;17.70;;;9.65;;
25123;SDS011;13104;51.030;4.686;2023-02-28T02:54:21;16.80;;;9.43;;
25123;SDS011;13104;51.030;4.686;2023-02-28T02:56:48;16.98;;;9.65;;
25123;SDS011;13104;51.030;4.686;2023-02-28T02:59:16;18.80;;;9.55;;
25123;SDS011;13104;51.030;4.686;2023-02-28T03:01:46;16.02;;;10.30;;
25123;SDS011;13104;51.030;4.686;2023-02-28T03:04:18;19.20;;;9.75;;
25123;SDS011;13104;51.030;4.686;2023-02-28T03:06:45;18.02;;;9.55;;
25123;SDS011;13104;51.030;4.686;2023-02-28T03:09:11;16.83;;;10.38;;
25123;SDS011;13104;51.030;4.686;2023-02-28T03:11:37;18.00;;;10.15;;
25123;SDS011;13104;51.030;4.686;2023-02-28T03:14:23;19.90;;;10.15;;
25123;SDS011;13104;51.030;4.686;2023-02-28T03:19:34;17.08;;;10.15;;
25123;SDS011;13104;51.030;4.686;2023-02-28T03:22:19;16.20;;;10.70;;
25123;SDS011;13104;51.030;4.686;2023-02-28T03:24:53;18.67;;;10.68;;
25123;SDS011;13104;51.030;4.686;2023-02-28T03:29:47;20.60;;;10.65;;
25123;SDS011;13104;51.030;4.686;2023-02-28T03:34:59;18.58;;;11.02;;
25123;SDS011;13104;51.030;4.686;2023-02-28T03:37:29;18.80;;;10.80;;
25123;SDS011;13104;51.030;4.686;2023-02-28T03:40:00;20.75;;;10.60;;
25123;SDS011;13104;51.030;4.686;2023-02-28T03:42:28;16.90;;;10.32;;
25123;SDS011;13104;51.030;4.686;2023-02-28T03:44:56;18.77;;;10.85;;
25123;SDS011;13104;51.030;4.686;2023-02-28T03:50:11;20.13;;;11.38;;
25123;SDS011;13104;51.030;4.686;2023-02-28T03:52:38;18.02;;;10.93;;
25123;SDS011;13104;51.030;4.686;2023-02-28T03:55:07;20.83;;;10.60;;
25123;SDS011;13104;51.030;4.686;2023-02-28T04:00:25;20.98;;;10.43;;
25123;SDS011;13104;51.030;4.686;2023-02-28T04:02:53;21.20;;;11.57;;
25123;SDS011;13104;51.030;4.686;2023-02-28T04:05:20;18.42;;;10.57;;
25123;SDS011;13104;51.030;4.686;2023-02-28T04:07:47;18.95;;;10.68;;
25123;SDS011;13104;51.030;4.686;2023-02-28T04:10:13;16.23;;;10.15;;
25123;SDS011;13104;51.030;4.686;2023-02-28T04:12:40;17.70;;;10.63;;
25123;SDS011;13104;51.030;4.686;2023-02-28T04:15:06;19.02;;;11.13;;
25123;SDS011;13104;51.030;4.686;2023-02-28T04:17:33;19.80;;;10.68;;
25123;SDS011;13104;51.030;4.686;2023-02-28T04:19:59;22.55;;;11.25;;
25123;SDS011;13104;51.030;4.686;2023-02-28T04:22:25;17.17;;;10.93;;
25123;SDS011;13104;51.030;4.686;2023-02-28T04:24:51;20.05;;;11.32;;
25123;SDS011;13104;51.030;4.686;2023-02-28T04:27:19;16.15;;;10.45;;
25123;SDS011;13104;51.030;4.686;2023-02-28T04:29:45;18.52;;;10.88;;
25123;SDS011;13104;51.030;4.686;2023-02-28T04:32:11;18.67;;;10.88;;
25123;SDS011;13104;51.030;4.686;2023-02-28T04:34:37;21.73;;;11.52;;
25123;SDS011;13104;51.030;4.686;2023-02-28T04:37:04;16.15;;;10.52;;
25123;SDS011;13104;51.030;4.686;2023-02-28T04:39:30;23.98;;;11.13;;
25123;SDS011;13104;51.030;4.686;2023-02-28T04:41:56;19.73;;;10.88;;
25123;SDS011;13104;51.030;4.686;2023-02-28T04:44:22;16.55;;;11.00;;
25123;SDS011;13104;51.030;4.686;2023-02-28T04:46:48;18.35;;;11.90;;
25123;SDS011;13104;51.030;4.686;2023-02-28T04:49:15;19.52;;;12.18;;
25123;SDS011;13104;51.030;4.686;2023-02-28T04:51:41;18.65;;;11.63;;
25123;SDS011;13104;51.030;4.686;2023-02-28T04:54:07;18.50;;;11.77;;
25123;SDS011;13104;51.030;4.686;2023-02-28T04:56:34;19.58;;;11.07;;
25123;SDS011;13104;51.030;4.686;2023-02-28T04:59:00;18.65;;;11.32;;
25123;SDS011;13104;51.030;4.686;2023-02-28T05:01:32;22.95;;;11.45;;
25123;SDS011;13104;51.030;4.686;2023-02-28T05:03:59;22.45;;;11.30;;
25123;SDS011;13104;51.030;4.686;2023-02-28T05:06:27;20.20;;;11.50;;
25123;SDS011;13104;51.030;4.686;2023-02-28T05:08:53;17.67;;;10.60;;
25123;SDS011;13104;51.030;4.686;2023-02-28T05:13:49;18.50;;;11.25;;
25123;SDS011;13104;51.030;4.686;2023-02-28T05:16:15;17.42;;;10.93;;
25123;SDS011;13104;51.030;4.686;2023-02-28T05:18:41;17.48;;;10.52;;
25123;SDS011;13104;51.030;4.686;2023-02-28T05:21:22;20.38;;;11.27;;
25123;SDS011;13104;51.030;4.686;2023-02-28T05:23:49;16.88;;;10.18;;
25123;SDS011;13104;51.030;4.686;2023-02-28T05:26:16;20.95;;;10.52;;
25123;SDS011;13104;51.030;4.686;2023-02-28T05:28:42;20.33;;;10.93;;
25123;SDS011;13104;51.030;4.686;2023-02-28T05:31:10;16.38;;;10.25;;
25123;SDS011;13104;51.030;4.686;2023-02-28T05:33:36;21.02;;;11.70;;
25123;SDS011;13104;51.030;4.686;2023-02-28T05:36:03;17.05;;;11.27;;
25123;SDS011;13104;51.030;4.686;2023-02-28T05:38:29;16.77;;;10.80;;
25123;SDS011;13104;51.030;4.686;2023-02-28T05:40:55;20.13;;;11.38;;
25123;SDS011;13104;51.030;4.686;2023-02-28T05:43:21;22.25;;;11.25;;
25123;SDS011;13104;51.030;4.686;2023-02-28T05:45:47;17.90;;;11.00;;
25123;SDS011;13104;51.030;4.686;2023-02-28T05:48:13;15.93;;;10.65;;
25123;SDS011;13104;51.030;4.686;2023-02-28T05:50:40;17.83;;;10.55;;
25123;SDS011;13104;51.030;4.686;2023-02-28T05:53:07;18.60;;;11.48;;
25123;SDS011;13104;51.030;4.686;2023-02-28T05:55:33;21.35;;;10.45;;
25123;SDS011;13104;51.030;4.686;2023-02-28T05:58:01;17.42;;;10.70;;
25123;SDS011;13104;51.030;4.686;2023-02-28T06:00:27;20.58;;;10.68;;
25123;SDS011;13104;51.030;4.686;2023-02-28T06:02:53;17.70;;;11.20;;
25123;SDS011;13104;51.030;4.686;2023-02-28T06:05:23;21.88;;;11.57;;
25123;SDS011;13104;51.030;4.686;2023-02-28T06:07:49;17.90;;;11.13;;
25123;SDS011;13104;51.030;4.686;2023-02-28T06:10:15;23.20;;;10.93;;
25123;SDS011;13104;51.030;4.686;2023-02-28T06:12:41;17.63;;;11.27;;
25123;SDS011;13104;51.030;4.686;2023-02-28T06:15:12;17.35;;;10.30;;
25123;SDS011;13104;51.030;4.686;2023-02-28T06:17:39;19.52;;;10.68;;
25123;SDS011;13104;51.030;4.686;2023-02-28T06:20:05;17.23;;;9.90;;
25123;SDS011;13104;51.030;4.686;2023-02-28T06:22:31;19.48;;;10.43;;
25123;SDS011;13104;51.030;4.686;2023-02-28T06:24:57;19.05;;;11.20;;
25123;SDS011;13104;51.030;4.686;2023-02-28T06:27:23;18.33;;;10.05;;
25123;SDS011;13104;51.030;4.686;2023-02-28T06:29:52;21.73;;;11.50;;
25123;SDS011;13104;51.030;4.686;2023-02-28T06:32:19;20.27;;;11.05;;
25123;SDS011;13104;51.030;4.686;2023-02-28T06:34:45;19.35;;;10.75;;
25123;SDS011;13104;51.030;4.686;2023-02-28T06:37:11;18.45;;;10.68;;
25123;SDS011;13104;51.030;4.686;2023-02-28T06:39:37;16.52;;;10.35;;
25123;SDS011;13104;51.030;4.686;2023-02-28T06:42:04;14.68;;;9.75;;
25123;SDS011;13104;51.030;4.686;2023-02-28T06:44:30;22.13;;;11.75;;
25123;SDS011;13104;51.030;4.686;2023-02-28T06:47:00;21.30;;;11.95;;
25123;SDS011;13104;51.030;4.686;2023-02-28T06:49:28;16.58;;;10.13;;
25123;SDS011;13104;51.030;4.686;2023-02-28T06:51:54;16.70;;;11.10;;
25123;SDS011;13104;51.030;4.686;2023-02-28T06:54:20;18.38;;;10.52;;
25123;SDS011;13104;51.030;4.686;2023-02-28T06:56:47;21.17;;;9.43;;
25123;SDS011;13104;51.030;4.686;2023-02-28T06:59:13;14.30;;;9.20;;
25123;SDS011;13104;51.030;4.686;2023-02-28T07:01:42;19.20;;;10.07;;
25123;SDS011;13104;51.030;4.686;2023-02-28T07:04:08;19.08;;;10.13;;
25123;SDS011;13104;51.030;4.686;2023-02-28T07:06:34;16.08;;;9.60;;
25123;SDS011;13104;51.030;4.686;2023-02-28T07:09:00;18.42;;;10.20;;
25123;SDS011;13104;51.030;4.686;2023-02-28T07:11:27;14.93;;;9.88;;
25123;SDS011;13104;51.030;4.686;2023-02-28T07:13:54;17.23;;;9.50;;
25123;SDS011;13104;51.030;4.686;2023-02-28T07:16:20;16.85;;;9.52;;
25123;SDS011;13104;51.030;4.686;2023-02-28T07:18:47;16.45;;;9.82;;
25123;SDS011;13104;51.030;4.686;2023-02-28T07:21:13;20.38;;;9.38;;
25123;SDS011;13104;51.030;4.686;2023-02-28T07:23:40;16.60;;;9.07;;
25123;SDS011;13104;51.030;4.686;2023-02-28T07:26:08;17.52;;;9.07;;
25123;SDS011;13104;51.030;4.686;2023-02-28T07:28:37;19.08;;;8.90;;
25123;SDS011;13104;51.030;4.686;2023-02-28T07:31:04;14.45;;;9.10;;
25123;SDS011;13104;51.030;4.686;2023-02-28T07:33:31;20.13;;;9.43;;
25123;SDS011;13104;51.030;4.686;2023-02-28T07:36:01;14.73;;;9.10;;
25123;SDS011;13104;51.030;4.686;2023-02-28T07:43:59;17.70;;;8.88;;
25123;SDS011;13104;51.030;4.686;2023-02-28T07:46:26;24.42;;;9.00;;
25123;SDS011;13104;51.030;4.686;2023-02-28T07:48:54;15.70;;;9.55;;
25123;SDS011;13104;51.030;4.686;2023-02-28T07:51:24;17.35;;;8.85;;
25123;SDS011;13104;51.030;4.686;2023-02-28T07:53:50;14.52;;;8.43;;
25123;SDS011;13104;51.030;4.686;2023-02-28T07:56:16;14.00;;;8.40;;
25123;SDS011;13104;51.030;4.686;2023-02-28T07:58:42;13.30;;;7.88;;
25123;SDS011;13104;51.030;4.686;2023-02-28T08:01:09;12.60;;;7.53;;
25123;SDS011;13104;51.030;4.686;2023-02-28T08:03:35;12.43;;;7.82;;
25123;SDS011;13104;51.030;4.686;2023-02-28T08:06:02;13.00;;;7.32;;
25123;SDS011;13104;51.030;4.686;2023-02-28T08:08:29;14.10;;;7.55;;
25123;SDS011;13104;51.030;4.686;2023-02-28T08:10:59;12.85;;;7.50;;
25123;SDS011;13104;51.030;4.686;2023-02-28T08:13:26;10.20;;;6.68;;
25123;SDS011;13104;51.030;4.686;2023-02-28T08:15:54;11.70;;;6.63;;
25123;SDS011;13104;51.030;4.686;2023-02-28T08:18:21;10.98;;;6.38;;
25123;SDS011;13104;51.030;4.686;2023-02-28T08:20:47;13.35;;;6.40;;
25123;SDS011;13104;51.030;4.686;2023-02-28T08:23:13;9.82;;;5.93;;
25123;SDS011;13104;51.030;4.686;2023-02-28T08:25:39;8.82;;;5.20;;
25123;SDS011;13104;51.030;4.686;2023-02-28T08:28:05;11.80;;;5.78;;
25123;SDS011;13104;51.030;4.686;2023-02-28T08:30:32;10.30;;;5.15;;
25123;SDS011;13104;51.030;4.686;2023-02-28T08:32:58;8.35;;;4.50;;
25123;SDS011;13104;51.030;4.686;2023-02-28T08:35:24;8.35;;;5.07;;
25123;SDS011;13104;51.030;4.686;2023-02-28T08:37:50;8.00;;;4.68;;
25123;SDS011;13104;51.030;4.686;2023-02-28T08:40:16;6.75;;;4.30;;
25123;SDS011;13104;51.030;4.686;2023-02-28T08:42:45;8.18;;;4.80;;
25123;SDS011;13104;51.030;4.686;2023-02-28T08:45:12;7.20;;;4.50;;
25123;SDS011;13104;51.030;4.686;2023-02-28T08:47:38;6.88;;;4.25;;
25123;SDS011;13104;51.030;4.686;2023-02-28T08:50:05;6.40;;;4.40;;
25123;SDS011;13104;51.030;4.686;2023-02-28T08:52:31;7.28;;;4.22;;
25123;SDS011;13104;51.030;4.686;2023-02-28T08:54:57;8.18;;;3.97;;
25123;SDS011;13104;51.030;4.686;2023-02-28T08:57:23;7.72;;;4.40;;
25123;SDS011;13104;51.030;4.686;2023-02-28T08:59:51;7.75;;;3.53;;
25123;SDS011;13104;51.030;4.686;2023-02-28T09:02:17;8.00;;;3.80;;
25123;SDS011;13104;51.030;4.686;2023-02-28T09:04:43;9.50;;;3.85;;
25123;SDS011;13104;51.030;4.686;2023-02-28T09:07:13;6.63;;;3.70;;
25123;SDS011;13104;51.030;4.686;2023-02-28T09:09:39;7.30;;;3.55;;
25123;SDS011;13104;51.030;4.686;2023-02-28T09:12:18;9.07;;;4.13;;
25123;SDS011;13104;51.030;4.686;2023-02-28T09:14:44;5.53;;;3.33;;
25123;SDS011;13104;51.030;4.686;2023-02-28T09:17:11;6.45;;;4.00;;
25123;SDS011;13104;51.030;4.686;2023-02-28T09:19:37;7.40;;;3.75;;
25123;SDS011;13104;51.030;4.686;2023-02-28T09:22:03;7.22;;;3.60;;
25123;SDS011;13104;51.030;4.686;2023-02-28T09:24:29;5.93;;;3.72;;
25123;SDS011;13104;51.030;4.686;2023-02-28T09:26:56;7.03;;;3.80;;
25123;SDS011;13104;51.030;4.686;2023-02-28T09:29:22;6.57;;;3.38;;
25123;SDS011;13104;51.030;4.686;2023-02-28T09:31:49;3.33;;;2.83;;
25123;SDS011;13104;51.030;4.686;2023-02-28T09:34:15;6.13;;;3.22;;
25123;SDS011;13104;51.030;4.686;2023-02-28T09:36:42;7.25;;;3.60;;
25123;SDS011;13104;51.030;4.686;2023-02-28T09:39:08;4.80;;;3.15;;
25123;SDS011;13104;51.030;4.686;2023-02-28T09:41:38;5.68;;;3.53;;
25123;SDS011;13104;51.030;4.686;2023-02-28T09:44:12;5.97;;;3.10;;
25123;SDS011;13104;51.030;4.686;2023-02-28T09:46:44;5.15;;;2.83;;
25123;SDS011;13104;51.030;4.686;2023-02-28T09:49:14;4.63;;;2.75;;
25123;SDS011;13104;51.030;4.686;2023-02-28T09:51:50;6.43;;;2.90;;
25123;SDS011;13104;51.030;4.686;2023-02-28T09:54:20;3.60;;;2.75;;
25123;SDS011;13104;51.030;4.686;2023-02-28T10:07:00;2.88;;;2.22;;
25123;SDS011;13104;51.030;4.686;2023-02-28T10:09:29;4.10;;;2.45;;
25123;SDS011;13104;51.030;4.686;2023-02-28T10:11:57;3.65;;;2.30;;
25123;SDS011;13104;51.030;4.686;2023-02-28T10:14:26;3.08;;;2.60;;
25123;SDS011;13104;51.030;4.686;2023-02-28T10:22:14;4.53;;;2.83;;
25123;SDS011;13104;51.030;4.686;2023-02-28T10:24:42;3.47;;;2.25;;
25123;SDS011;13104;51.030;4.686;2023-02-28T10:27:18;5.18;;;2.75;;
25123;SDS011;13104;51.030;4.686;2023-02-28T10:29:46;3.85;;;2.42;;
25123;SDS011;13104;51.030;4.686;2023-02-28T10:32:14;4.70;;;2.60;;
25123;SDS011;13104;51.030;4.686;2023-02-28T10:34:41;4.93;;;2.90;;
25123;SDS011;13104;51.030;4.686;2023-02-28T10:37:07;4.10;;;2.70;;
25123;SDS011;13104;51.030;4.686;2023-02-28T10:39:36;4.13;;;2.78;;
25123;SDS011;13104;51.030;4.686;2023-02-28T10:42:05;5.22;;;2.90;;
25123;SDS011;13104;51.030;4.686;2023-02-28T10:44:44;3.83;;;2.90;;
25123;SDS011;13104;51.030;4.686;2023-02-28T10:47:16;5.50;;;2.95;;
25123;SDS011;13104;51.030;4.686;2023-02-28T10:49:47;3.45;;;2.65;;
25123;SDS011;13104;51.030;4.686;2023-02-28T10:52:14;4.30;;;2.45;;
25123;SDS011;13104;51.030;4.686;2023-02-28T10:55:13;5.05;;;2.72;;
25123;SDS011;13104;51.030;4.686;2023-02-28T10:57:40;4.10;;;2.80;;
25123;SDS011;13104;51.030;4.686;2023-02-28T11:00:17;5.50;;;3.08;;
25123;SDS011;13104;51.030;4.686;2023-02-28T11:02:44;8.52;;;2.72;;
25123;SDS011;13104;51.030;4.686;2023-02-28T11:07:50;6.35;;;2.83;;
25123;SDS011;13104;51.030;4.686;2023-02-28T11:10:18;3.75;;;2.65;;
25123;SDS011;13104;51.030;4.686;2023-02-28T11:12:46;3.45;;;2.53;;
25123;SDS011;13104;51.030;4.686;2023-02-28T11:15:28;8.10;;;3.03;;
25123;SDS011;13104;51.030;4.686;2023-02-28T11:20:25;2.90;;;2.38;;
25123;SDS011;13104;51.030;4.686;2023-02-28T11:22:52;4.78;;;2.55;;
25123;SDS011;13104;51.030;4.686;2023-02-28T11:25:24;3.67;;;2.28;;
25123;SDS011;13104;51.030;4.686;2023-02-28T11:27:52;7.63;;;2.40;;
25123;SDS011;13104;51.030;4.686;2023-02-28T11:32:50;5.80;;;2.42;;
25123;SDS011;13104;51.030;4.686;2023-02-28T11:35:18;4.28;;;2.40;;
25123;SDS011;13104;51.030;4.686;2023-02-28T11:37:47;4.70;;;3.05;;
25123;SDS011;13104;51.030;4.686;2023-02-28T11:40:36;3.75;;;2.60;;
25123;SDS011;13104;51.030;4.686;2023-02-28T11:43:13;5.35;;;2.30;;
25123;SDS011;13104;51.030;4.686;2023-02-28T11:48:23;3.30;;;2.47;;
25123;SDS011;13104;51.030;4.686;2023-02-28T12:05:58;3.13;;;2.28;;
25123;SDS011;13104;51.030;4.686;2023-02-28T12:19:13;3.85;;;2.50;;
25123;SDS011;13104;51.030;4.686;2023-02-28T12:27:16;2.97;;;2.33;;
25123;SDS011;13104;51.030;4.686;2023-02-28T12:29:49;4.85;;;2.30;;
25123;SDS011;13104;51.030;4.686;2023-02-28T12:32:20;3.92;;;2.67;;
25123;SDS011;13104;51.030;4.686;2023-02-28T12:34:55;3.75;;;2.75;;
25123;SDS011;13104;51.030;4.686;2023-02-28T12:37:28;4.25;;;3.00;;
25123;SDS011;13104;51.030;4.686;2023-02-28T12:39:56;4.22;;;2.78;;
25123;SDS011;13104;51.030;4.686;2023-02-28T12:42:29;3.70;;;2.58;;
25123;SDS011;13104;51.030;4.686;2023-02-28T12:45:01;3.63;;;2.78;;
25123;SDS011;13104;51.030;4.686;2023-02-28T12:47:28;3.50;;;2.47;;
25123;SDS011;13104;51.030;4.686;2023-02-28T12:50:12;4.53;;;2.95;;
25123;SDS011;13104;51.030;4.686;2023-02-28T12:57:48;5.40;;;3.15;;
25123;SDS011;13104;51.030;4.686;2023-02-28T13:00:16;4.70;;;2.72;;
25123;SDS011;13104;51.030;4.686;2023-02-28T13:10:44;3.30;;;2.80;;
25123;SDS011;13104;51.030;4.686;2023-02-28T13:13:15;5.03;;;3.10;;
25123;SDS011;13104;51.030;4.686;2023-02-28T13:15:56;4.38;;;2.80;;
25123;SDS011;13104;51.030;4.686;2023-02-28T13:18:27;9.85;;;2.70;;
25123;SDS011;13104;51.030;4.686;2023-02-28T13:20:54;6.43;;;2.70;;
25123;SDS011;13104;51.030;4.686;2023-02-28T13:26:16;3.78;;;3.08;;
25123;SDS011;13104;51.030;4.686;2023-02-28T13:31:14;3.25;;;2.80;;
25123;SDS011;13104;51.030;4.686;2023-02-28T13:38:48;3.92;;;2.80;;
25123;SDS011;13104;51.030;4.686;2023-02-28T13:46:26;6.28;;;3.00;;
25123;SDS011;13104;51.030;4.686;2023-02-28T13:48:52;5.13;;;3.05;;
25123;SDS011;13104;51.030;4.686;2023-02-28T13:51:31;5.18;;;3.10;;
25123;SDS011;13104;51.030;4.686;2023-02-28T13:54:06;4.05;;;3.13;;
25123;SDS011;13104;51.030;4.686;2023-02-28T13:57:01;6.30;;;3.50;;
25123;SDS011;13104;51.030;4.686;2023-02-28T14:02:08;5.38;;;3.15;;
25123;SDS011;13104;51.030;4.686;2023-02-28T14:04:42;5.60;;;3.42;;
25123;SDS011;13104;51.030;4.686;2023-02-28T14:07:19;6.93;;;3.50;;
25123;SDS011;13104;51.030;4.686;2023-02-28T14:09:50;7.32;;;3.35;;
25123;SDS011;13104;51.030;4.686;2023-02-28T14:15:04;6.38;;;3.25;;
25123;SDS011;13104;51.030;4.686;2023-02-28T14:17:30;6.25;;;2.90;;
25123;SDS011;13104;51.030;4.686;2023-02-28T14:19:57;7.97;;;3.42;;
25123;SDS011;13104;51.030;4.686;2023-02-28T14:30:17;5.35;;;3.15;;
25123;SDS011;13104;51.030;4.686;2023-02-28T14:33:12;4.75;;;3.20;;
25123;SDS011;13104;51.030;4.686;2023-02-28T14:38:29;30.55;;;12.65;;
25123;SDS011;13104;51.030;4.686;2023-02-28T14:40:57;10.63;;;5.45;;
25123;SDS011;13104;51.030;4.686;2023-02-28T14:43:25;4.20;;;3.38;;
25123;SDS011;13104;51.030;4.686;2023-02-28T14:45:52;5.03;;;3.17;;
25123;SDS011;13104;51.030;4.686;2023-02-28T14:48:20;6.53;;;3.35;;
25123;SDS011;13104;51.030;4.686;2023-02-28T14:50:54;9.02;;;5.03;;
25123;SDS011;13104;51.030;4.686;2023-02-28T14:53:21;4.88;;;3.03;;
25123;SDS011;13104;51.030;4.686;2023-02-28T14:55:48;6.32;;;4.30;;
25123;SDS011;13104;51.030;4.686;2023-02-28T14:58:33;8.10;;;3.53;;
25123;SDS011;13104;51.030;4.686;2023-02-28T15:01:00;6.65;;;3.42;;
25123;SDS011;13104;51.030;4.686;2023-02-28T15:03:34;5.80;;;3.67;;
25123;SDS011;13104;51.030;4.686;2023-02-28T15:06:02;6.85;;;3.50;;
25123;SDS011;13104;51.030;4.686;2023-02-28T15:08:29;6.25;;;3.60;;
25123;SDS011;13104;51.030;4.686;2023-02-28T15:11:04;8.30;;;3.13;;
25123;SDS011;13104;51.030;4.686;2023-02-28T15:13:52;5.22;;;3.42;;
25123;SDS011;13104;51.030;4.686;2023-02-28T15:19:06;4.75;;;3.38;;
25123;SDS011;13104;51.030;4.686;2023-02-28T15:21:34;6.90;;;3.33;;
25123;SDS011;13104;51.030;4.686;2023-02-28T15:26:29;4.20;;;2.90;;
25123;SDS011;13104;51.030;4.686;2023-02-28T15:29:00;5.50;;;3.08;;
25123;SDS011;13104;51.030;4.686;2023-02-28T15:31:27;5.30;;;3.38;;
25123;SDS011;13104;51.030;4.686;2023-02-28T15:33:55;5.47;;;3.33;;
25123;SDS011;13104;51.030;4.686;2023-02-28T15:36:23;6.97;;;3.95;;
25123;SDS011;13104;51.030;4.686;2023-02-28T15:38:52;5.18;;;3.33;;
25123;SDS011;13104;51.030;4.686;2023-02-28T15:41:26;6.20;;;3.78;;
25123;SDS011;13104;51.030;4.686;2023-02-28T15:46:37;7.03;;;3.33;;
25123;SDS011;13104;51.030;4.686;2023-02-28T15:49:04;5.25;;;3.25;;
25123;SDS011;13104;51.030;4.686;2023-02-28T15:51:32;6.45;;;3.65;;
25123;SDS011;13104;51.030;4.686;2023-02-28T15:54:00;4.80;;;3.63;;
25123;SDS011;13104;51.030;4.686;2023-02-28T15:56:27;5.18;;;3.40;;
25123;SDS011;13104;51.030;4.686;2023-02-28T15:58:57;6.75;;;3.50;;
25123;SDS011;13104;51.030;4.686;2023-02-28T16:01:26;6.15;;;3.67;;
25123;SDS011;13104;51.030;4.686;2023-02-28T16:03:55;7.35;;;3.70;;
25123;SDS011;13104;51.030;4.686;2023-02-28T16:06:33;6.45;;;3.88;;
25123;SDS011;13104;51.030;4.686;2023-02-28T16:08:59;5.28;;;3.47;;
25123;SDS011;13104;51.030;4.686;2023-02-28T16:11:25;7.72;;;3.67;;
25123;SDS011;13104;51.030;4.686;2023-02-28T16:13:52;4.57;;;3.22;;
25123;SDS011;13104;51.030;4.686;2023-02-28T16:16:20;7.55;;;3.83;;
25123;SDS011;13104;51.030;4.686;2023-02-28T16:18:46;8.35;;;3.75;;
25123;SDS011;13104;51.030;4.686;2023-02-28T16:21:12;8.05;;;3.55;;
25123;SDS011;13104;51.030;4.686;2023-02-28T16:23:38;7.50;;;3.17;;
25123;SDS011;13104;51.030;4.686;2023-02-28T16:26:05;5.32;;;3.00;;
25123;SDS011;13104;51.030;4.686;2023-02-28T16:28:36;5.40;;;3.20;;
25123;SDS011;13104;51.030;4.686;2023-02-28T16:31:04;12.20;;;3.25;;
25123;SDS011;13104;51.030;4.686;2023-02-28T16:33:31;7.03;;;3.08;;
25123;SDS011;13104;51.030;4.686;2023-02-28T16:35:57;8.70;;;3.42;;
25123;SDS011;13104;51.030;4.686;2023-02-28T16:38:23;6.70;;;3.50;;
25123;SDS011;13104;51.030;4.686;2023-02-28T16:40:50;5.78;;;3.15;;
25123;SDS011;13104;51.030;4.686;2023-02-28T16:43:17;8.75;;;3.50;;
25123;SDS011;13104;51.030;4.686;2023-02-28T16:45:44;6.03;;;3.80;;
25123;SDS011;13104;51.030;4.686;2023-02-28T16:48:12;6.80;;;4.28;;
25123;SDS011;13104;51.030;4.686;2023-02-28T16:50:38;6.45;;;4.15;;
25123;SDS011;13104;51.030;4.686;2023-02-28T16:53:04;5.40;;;3.58;;
25123;SDS011;13104;51.030;4.686;2023-02-28T16:55:30;5.03;;;3.65;;
25123;SDS011;13104;51.030;4.686;2023-02-28T16:58:00;5.72;;;3.45;;
25123;SDS011;13104;51.030;4.686;2023-02-28T17:00:27;6.05;;;3.90;;
25123;SDS011;13104;51.030;4.686;2023-02-28T17:02:54;6.13;;;3.88;;
25123;SDS011;13104;51.030;4.686;2023-02-28T17:05:21;12.20;;;6.57;;
25123;SDS011;13104;51.030;4.686;2023-02-28T17:07:47;8.88;;;4.10;;
25123;SDS011;13104;51.030;4.686;2023-02-28T17:10:18;5.38;;;3.65;;
25123;SDS011;13104;51.030;4.686;2023-02-28T17:12:44;7.38;;;3.88;;
25123;SDS011;13104;51.030;4.686;2023-02-28T17:15:11;6.05;;;3.97;;